sensor_id;sensor_type;location;lat;lon;timestamp;P1;durP1;ratioP1;P2;durP2;ratioP2
43744;SDS011;29359;53.048;8.732;2023-04-24T00:00:21;2.08;;;1.08;;
43744;SDS011;29359;53.048;8.732;2023-04-24T00:02:22;1.13;;;0.95;;
43744;SDS011;29359;53.048;8.732;2023-04-24T00:04:25;0.90;;;0.90;;
43744;SDS011;29359;53.048;8.732;2023-04-24T00:06:27;1.52;;;1.10;;
43744;SDS011;29359;53.048;8.732;2023-04-24T00:08:34;0.82;;;0.80;;
43744;SDS011;29359;53.048;8.732;2023-04-24T00:10:37;1.70;;;1.00;;
43744;SDS011;29359;53.048;8.732;2023-04-24T00:12:38;2.72;;;1.00;;
43744;SDS011;29359;53.048;8.732;2023-04-24T00:14:40;0.90;;;0.85;;
43744;SDS011;29359;53.048;8.732;2023-04-24T00:16:42;2.38;;;1.17;;
43744;SDS011;29359;53.048;8.732;2023-04-24T00:18:43;0.90;;;0.90;;
43744;SDS011;29359;53.048;8.732;2023-04-24T00:20:46;1.40;;;0.93;;
43744;SDS011;29359;53.048;8.732;2023-04-24T00:22:47;4.93;;;1.25;;
43744;SDS011;29359;53.048;8.732;2023-04-24T00:24:49;0.90;;;0.90;;
43744;SDS011;29359;53.048;8.732;2023-04-24T00:26:50;1.45;;;1.10;;
43744;SDS011;29359;53.048;8.732;2023-04-24T00:28:52;1.60;;;1.17;;
43744;SDS011;29359;53.048;8.732;2023-04-24T00:30:53;1.20;;;1.08;;
43744;SDS011;29359;53.048;8.732;2023-04-24T00:32:55;1.55;;;1.00;;
43744;SDS011;29359;53.048;8.732;2023-04-24T00:34:56;1.20;;;1.10;;
43744;SDS011;29359;53.048;8.732;2023-04-24T00:36:58;1.20;;;1.02;;
43744;SDS011;29359;53.048;8.732;2023-04-24T00:38:59;1.77;;;0.80;;
43744;SDS011;29359;53.048;8.732;2023-04-24T00:41:01;0.70;;;0.60;;
43744;SDS011;29359;53.048;8.732;2023-04-24T00:43:02;0.60;;;0.60;;
43744;SDS011;29359;53.048;8.732;2023-04-24T00:45:04;1.65;;;0.68;;
43744;SDS011;29359;53.048;8.732;2023-04-24T00:47:07;0.70;;;0.70;;
43744;SDS011;29359;53.048;8.732;2023-04-24T00:49:08;0.50;;;0.50;;
43744;SDS011;29359;53.048;8.732;2023-04-24T00:51:10;2.05;;;0.40;;
43744;SDS011;29359;53.048;8.732;2023-04-24T00:53:11;0.50;;;0.50;;
43744;SDS011;29359;53.048;8.732;2023-04-24T00:55:13;0.50;;;0.50;;
43744;SDS011;29359;53.048;8.732;2023-04-24T00:57:14;1.65;;;0.50;;
43744;SDS011;29359;53.048;8.732;2023-04-24T00:59:16;1.15;;;0.60;;
43744;SDS011;29359;53.048;8.732;2023-04-24T01:01:19;0.60;;;0.60;;
43744;SDS011;29359;53.048;8.732;2023-04-24T01:03:22;4.65;;;0.70;;
43744;SDS011;29359;53.048;8.732;2023-04-24T01:05:27;0.65;;;0.60;;
43744;SDS011;29359;53.048;8.732;2023-04-24T01:07:29;1.30;;;0.63;;
43744;SDS011;29359;53.048;8.732;2023-04-24T01:09:31;0.50;;;0.50;;
43744;SDS011;29359;53.048;8.732;2023-04-24T01:11:32;0.70;;;0.70;;
43744;SDS011;29359;53.048;8.732;2023-04-24T01:13:34;0.63;;;0.63;;
43744;SDS011;29359;53.048;8.732;2023-04-24T01:15:36;1.05;;;0.82;;
43744;SDS011;29359;53.048;8.732;2023-04-24T01:17:37;0.65;;;0.65;;
43744;SDS011;29359;53.048;8.732;2023-04-24T01:19:40;1.48;;;0.60;;
43744;SDS011;29359;53.048;8.732;2023-04-24T01:21:42;1.15;;;0.90;;
43744;SDS011;29359;53.048;8.732;2023-04-24T01:23:44;0.65;;;0.65;;
43744;SDS011;29359;53.048;8.732;2023-04-24T01:25:46;9.35;;;0.82;;
43744;SDS011;29359;53.048;8.732;2023-04-24T01:27:50;1.48;;;0.80;;
43744;SDS011;29359;53.048;8.732;2023-04-24T01:29:52;0.73;;;0.73;;
43744;SDS011;29359;53.048;8.732;2023-04-24T01:31:54;2.22;;;0.80;;
43744;SDS011;29359;53.048;8.732;2023-04-24T01:33:56;1.23;;;0.80;;
43744;SDS011;29359;53.048;8.732;2023-04-24T01:35:58;0.65;;;0.65;;
43744;SDS011;29359;53.048;8.732;2023-04-24T01:38:00;0.93;;;0.57;;
43744;SDS011;29359;53.048;8.732;2023-04-24T01:40:01;0.70;;;0.70;;
43744;SDS011;29359;53.048;8.732;2023-04-24T01:42:04;1.63;;;0.80;;
43744;SDS011;29359;53.048;8.732;2023-04-24T01:44:07;0.80;;;0.70;;
43744;SDS011;29359;53.048;8.732;2023-04-24T01:46:08;0.80;;;0.80;;
43744;SDS011;29359;53.048;8.732;2023-04-24T01:48:11;0.70;;;0.70;;
43744;SDS011;29359;53.048;8.732;2023-04-24T01:50:13;0.63;;;0.63;;
43744;SDS011;29359;53.048;8.732;2023-04-24T01:52:15;0.88;;;0.80;;
43744;SDS011;29359;53.048;8.732;2023-04-24T01:54:17;1.50;;;0.80;;
43744;SDS011;29359;53.048;8.732;2023-04-24T01:56:19;1.75;;;1.00;;
43744;SDS011;29359;53.048;8.732;2023-04-24T01:58:22;0.70;;;0.70;;
43744;SDS011;29359;53.048;8.732;2023-04-24T02:00:24;1.05;;;0.65;;
43744;SDS011;29359;53.048;8.732;2023-04-24T02:02:26;0.90;;;0.70;;
43744;SDS011;29359;53.048;8.732;2023-04-24T02:04:31;0.70;;;0.70;;
43744;SDS011;29359;53.048;8.732;2023-04-24T02:06:32;0.60;;;0.60;;
43744;SDS011;29359;53.048;8.732;2023-04-24T02:08:34;1.38;;;0.77;;
43744;SDS011;29359;53.048;8.732;2023-04-24T02:10:36;3.00;;;0.70;;
43744;SDS011;29359;53.048;8.732;2023-04-24T02:12:37;1.10;;;0.80;;
43744;SDS011;29359;53.048;8.732;2023-04-24T02:14:39;0.88;;;0.70;;
43744;SDS011;29359;53.048;8.732;2023-04-24T02:16:40;2.00;;;1.00;;
43744;SDS011;29359;53.048;8.732;2023-04-24T02:18:42;0.65;;;0.65;;
43744;SDS011;29359;53.048;8.732;2023-04-24T02:20:43;1.02;;;1.02;;
43744;SDS011;29359;53.048;8.732;2023-04-24T02:22:45;0.70;;;0.70;;
43744;SDS011;29359;53.048;8.732;2023-04-24T02:24:46;0.90;;;0.90;;
43744;SDS011;29359;53.048;8.732;2023-04-24T02:26:48;1.10;;;1.00;;
43744;SDS011;29359;53.048;8.732;2023-04-24T02:28:49;1.20;;;1.13;;
43744;SDS011;29359;53.048;8.732;2023-04-24T02:30:51;1.23;;;1.23;;
43744;SDS011;29359;53.048;8.732;2023-04-24T02:32:52;1.63;;;1.30;;
43744;SDS011;29359;53.048;8.732;2023-04-24T02:34:54;2.35;;;1.35;;
43744;SDS011;29359;53.048;8.732;2023-04-24T02:36:56;1.98;;;1.48;;
43744;SDS011;29359;53.048;8.732;2023-04-24T02:38:57;1.63;;;1.52;;
43744;SDS011;29359;53.048;8.732;2023-04-24T02:40:59;1.50;;;1.40;;
43744;SDS011;29359;53.048;8.732;2023-04-24T02:43:01;1.63;;;1.48;;
43744;SDS011;29359;53.048;8.732;2023-04-24T02:45:03;1.63;;;1.50;;
43744;SDS011;29359;53.048;8.732;2023-04-24T02:47:06;1.88;;;1.63;;
43744;SDS011;29359;53.048;8.732;2023-04-24T02:49:08;2.30;;;1.55;;
43744;SDS011;29359;53.048;8.732;2023-04-24T02:51:10;1.83;;;1.70;;
43744;SDS011;29359;53.048;8.732;2023-04-24T02:53:11;5.18;;;1.63;;
43744;SDS011;29359;53.048;8.732;2023-04-24T02:55:13;1.75;;;1.65;;
43744;SDS011;29359;53.048;8.732;2023-04-24T02:57:14;2.17;;;1.65;;
43744;SDS011;29359;53.048;8.732;2023-04-24T02:59:16;1.55;;;1.45;;
43744;SDS011;29359;53.048;8.732;2023-04-24T03:01:17;1.85;;;1.75;;
43744;SDS011;29359;53.048;8.732;2023-04-24T03:03:19;2.20;;;2.00;;
43744;SDS011;29359;53.048;8.732;2023-04-24T03:05:21;1.60;;;1.50;;
43744;SDS011;29359;53.048;8.732;2023-04-24T03:07:22;1.50;;;1.40;;
43744;SDS011;29359;53.048;8.732;2023-04-24T03:09:25;3.25;;;1.90;;
43744;SDS011;29359;53.048;8.732;2023-04-24T03:11:26;3.80;;;1.50;;
43744;SDS011;29359;53.048;8.732;2023-04-24T03:13:28;2.45;;;1.80;;
43744;SDS011;29359;53.048;8.732;2023-04-24T03:15:29;1.92;;;1.73;;
43744;SDS011;29359;53.048;8.732;2023-04-24T03:17:31;1.98;;;1.88;;
43744;SDS011;29359;53.048;8.732;2023-04-24T03:19:32;1.88;;;1.73;;
43744;SDS011;29359;53.048;8.732;2023-04-24T03:21:34;6.10;;;1.90;;
43744;SDS011;29359;53.048;8.732;2023-04-24T03:23:36;3.72;;;1.88;;
43744;SDS011;29359;53.048;8.732;2023-04-24T03:25:38;1.85;;;1.73;;
43744;SDS011;29359;53.048;8.732;2023-04-24T03:27:40;3.22;;;2.35;;
43744;SDS011;29359;53.048;8.732;2023-04-24T03:29:41;1.70;;;1.60;;
43744;SDS011;29359;53.048;8.732;2023-04-24T03:31:43;4.93;;;1.92;;
43744;SDS011;29359;53.048;8.732;2023-04-24T03:33:45;2.00;;;1.80;;
43744;SDS011;29359;53.048;8.732;2023-04-24T03:35:46;1.95;;;1.77;;
43744;SDS011;29359;53.048;8.732;2023-04-24T03:37:48;2.15;;;1.65;;
43744;SDS011;29359;53.048;8.732;2023-04-24T03:39:49;1.88;;;1.40;;
43744;SDS011;29359;53.048;8.732;2023-04-24T03:41:51;1.77;;;1.67;;
43744;SDS011;29359;53.048;8.732;2023-04-24T03:43:52;2.60;;;1.55;;
43744;SDS011;29359;53.048;8.732;2023-04-24T03:45:54;1.60;;;1.50;;
43744;SDS011;29359;53.048;8.732;2023-04-24T03:47:55;1.67;;;1.50;;
43744;SDS011;29359;53.048;8.732;2023-04-24T03:49:57;1.60;;;1.50;;
43744;SDS011;29359;53.048;8.732;2023-04-24T03:51:58;1.75;;;1.65;;
43744;SDS011;29359;53.048;8.732;2023-04-24T03:54:00;2.00;;;1.55;;
43744;SDS011;29359;53.048;8.732;2023-04-24T03:56:01;1.65;;;1.55;;
43744;SDS011;29359;53.048;8.732;2023-04-24T03:58:03;1.80;;;1.70;;
43744;SDS011;29359;53.048;8.732;2023-04-24T04:00:04;1.88;;;1.52;;
43744;SDS011;29359;53.048;8.732;2023-04-24T04:02:07;1.55;;;1.45;;
43744;SDS011;29359;53.048;8.732;2023-04-24T04:04:09;1.80;;;1.70;;
43744;SDS011;29359;53.048;8.732;2023-04-24T04:06:11;1.90;;;1.80;;
43744;SDS011;29359;53.048;8.732;2023-04-24T04:08:14;1.60;;;1.50;;
43744;SDS011;29359;53.048;8.732;2023-04-24T04:10:15;1.88;;;1.70;;
43744;SDS011;29359;53.048;8.732;2023-04-24T04:12:18;1.40;;;1.30;;
43744;SDS011;29359;53.048;8.732;2023-04-24T04:14:19;1.40;;;1.30;;
43744;SDS011;29359;53.048;8.732;2023-04-24T04:16:21;1.98;;;1.55;;
43744;SDS011;29359;53.048;8.732;2023-04-24T04:18:23;1.40;;;1.30;;
43744;SDS011;29359;53.048;8.732;2023-04-24T04:20:24;1.42;;;1.30;;
43744;SDS011;29359;53.048;8.732;2023-04-24T04:22:26;1.50;;;1.40;;
43744;SDS011;29359;53.048;8.732;2023-04-24T04:24:28;1.92;;;1.40;;
43744;SDS011;29359;53.048;8.732;2023-04-24T04:26:29;1.52;;;1.42;;
43744;SDS011;29359;53.048;8.732;2023-04-24T04:28:33;4.88;;;1.73;;
43744;SDS011;29359;53.048;8.732;2023-04-24T04:30:35;2.15;;;1.60;;
43744;SDS011;29359;53.048;8.732;2023-04-24T04:32:39;1.70;;;1.60;;
43744;SDS011;29359;53.048;8.732;2023-04-24T04:34:41;2.13;;;1.45;;
43744;SDS011;29359;53.048;8.732;2023-04-24T04:36:43;1.52;;;1.42;;
43744;SDS011;29359;53.048;8.732;2023-04-24T04:38:45;1.63;;;1.52;;
43744;SDS011;29359;53.048;8.732;2023-04-24T04:40:46;1.95;;;1.50;;
43744;SDS011;29359;53.048;8.732;2023-04-24T04:42:48;1.60;;;1.50;;
43744;SDS011;29359;53.048;8.732;2023-04-24T04:44:50;1.83;;;1.30;;
43744;SDS011;29359;53.048;8.732;2023-04-24T04:46:51;1.70;;;1.50;;
43744;SDS011;29359;53.048;8.732;2023-04-24T04:48:54;1.60;;;1.50;;
43744;SDS011;29359;53.048;8.732;2023-04-24T04:50:55;3.05;;;1.50;;
43744;SDS011;29359;53.048;8.732;2023-04-24T04:52:57;4.88;;;1.40;;
43744;SDS011;29359;53.048;8.732;2023-04-24T04:54:58;1.65;;;1.55;;
43744;SDS011;29359;53.048;8.732;2023-04-24T04:57:00;3.30;;;1.25;;
43744;SDS011;29359;53.048;8.732;2023-04-24T04:59:04;4.60;;;1.75;;
43744;SDS011;29359;53.048;8.732;2023-04-24T05:01:07;4.97;;;1.45;;
43744;SDS011;29359;53.048;8.732;2023-04-24T05:03:09;1.50;;;1.40;;
43744;SDS011;29359;53.048;8.732;2023-04-24T05:05:21;1.52;;;1.42;;
43744;SDS011;29359;53.048;8.732;2023-04-24T05:07:22;4.68;;;1.20;;
43744;SDS011;29359;53.048;8.732;2023-04-24T05:09:24;1.88;;;1.60;;
43744;SDS011;29359;53.048;8.732;2023-04-24T05:11:28;6.68;;;1.50;;
43744;SDS011;29359;53.048;8.732;2023-04-24T05:13:30;1.67;;;1.58;;
43744;SDS011;29359;53.048;8.732;2023-04-24T05:15:41;1.80;;;1.30;;
43744;SDS011;29359;53.048;8.732;2023-04-24T05:17:42;1.40;;;1.30;;
43744;SDS011;29359;53.048;8.732;2023-04-24T05:19:44;2.05;;;1.33;;
43744;SDS011;29359;53.048;8.732;2023-04-24T05:21:46;1.52;;;1.42;;
43744;SDS011;29359;53.048;8.732;2023-04-24T05:23:47;1.73;;;1.50;;
43744;SDS011;29359;53.048;8.732;2023-04-24T05:25:49;1.92;;;1.58;;
43744;SDS011;29359;53.048;8.732;2023-04-24T05:27:51;2.10;;;1.55;;
43744;SDS011;29359;53.048;8.732;2023-04-24T05:29:52;1.60;;;1.50;;
43744;SDS011;29359;53.048;8.732;2023-04-24T05:31:54;1.60;;;1.50;;
43744;SDS011;29359;53.048;8.732;2023-04-24T05:33:55;1.70;;;1.40;;
43744;SDS011;29359;53.048;8.732;2023-04-24T05:35:57;2.05;;;1.80;;
43744;SDS011;29359;53.048;8.732;2023-04-24T05:37:58;6.32;;;2.00;;
43744;SDS011;29359;53.048;8.732;2023-04-24T05:40:00;3.85;;;1.70;;
43744;SDS011;29359;53.048;8.732;2023-04-24T05:42:02;2.38;;;1.80;;
43744;SDS011;29359;53.048;8.732;2023-04-24T05:44:05;1.70;;;1.60;;
43744;SDS011;29359;53.048;8.732;2023-04-24T05:46:07;3.15;;;2.20;;
43744;SDS011;29359;53.048;8.732;2023-04-24T05:48:08;2.03;;;1.92;;
43744;SDS011;29359;53.048;8.732;2023-04-24T05:50:10;2.40;;;2.20;;
43744;SDS011;29359;53.048;8.732;2023-04-24T05:52:12;2.33;;;2.13;;
43744;SDS011;29359;53.048;8.732;2023-04-24T05:54:14;4.03;;;2.30;;
43744;SDS011;29359;53.048;8.732;2023-04-24T05:56:15;1.95;;;1.80;;
43744;SDS011;29359;53.048;8.732;2023-04-24T05:58:17;2.83;;;2.58;;
43744;SDS011;29359;53.048;8.732;2023-04-24T06:00:19;2.92;;;2.70;;
43744;SDS011;29359;53.048;8.732;2023-04-24T06:02:21;2.80;;;2.60;;
43744;SDS011;29359;53.048;8.732;2023-04-24T06:04:23;4.68;;;2.92;;
43744;SDS011;29359;53.048;8.732;2023-04-24T06:06:26;2.92;;;2.65;;
43744;SDS011;29359;53.048;8.732;2023-04-24T06:08:28;4.82;;;2.83;;
43744;SDS011;29359;53.048;8.732;2023-04-24T06:10:29;3.70;;;3.40;;
43744;SDS011;29359;53.048;8.732;2023-04-24T06:12:31;3.88;;;3.08;;
43744;SDS011;29359;53.048;8.732;2023-04-24T06:14:32;4.82;;;3.38;;
43744;SDS011;29359;53.048;8.732;2023-04-24T06:16:34;3.90;;;3.50;;
43744;SDS011;29359;53.048;8.732;2023-04-24T06:18:36;3.92;;;3.63;;
43744;SDS011;29359;53.048;8.732;2023-04-24T06:20:37;4.57;;;4.18;;
43744;SDS011;29359;53.048;8.732;2023-04-24T06:22:40;4.68;;;4.28;;
43744;SDS011;29359;53.048;8.732;2023-04-24T06:24:41;4.38;;;3.97;;
43744;SDS011;29359;53.048;8.732;2023-04-24T06:26:43;4.25;;;3.90;;
43744;SDS011;29359;53.048;8.732;2023-04-24T06:28:44;4.35;;;3.97;;
43744;SDS011;29359;53.048;8.732;2023-04-24T06:30:46;4.97;;;3.92;;
43744;SDS011;29359;53.048;8.732;2023-04-24T06:32:47;5.82;;;4.43;;
43744;SDS011;29359;53.048;8.732;2023-04-24T06:34:50;5.80;;;4.78;;
43744;SDS011;29359;53.048;8.732;2023-04-24T06:36:53;4.90;;;4.60;;
43744;SDS011;29359;53.048;8.732;2023-04-24T06:38:56;4.80;;;4.40;;
43744;SDS011;29359;53.048;8.732;2023-04-24T06:40:58;4.97;;;4.57;;
43744;SDS011;29359;53.048;8.732;2023-04-24T06:42:59;5.65;;;5.10;;
43744;SDS011;29359;53.048;8.732;2023-04-24T06:45:04;5.35;;;4.85;;
43744;SDS011;29359;53.048;8.732;2023-04-24T06:47:09;5.55;;;5.15;;
43744;SDS011;29359;53.048;8.732;2023-04-24T06:49:11;8.10;;;5.30;;
43744;SDS011;29359;53.048;8.732;2023-04-24T06:51:13;5.75;;;5.32;;
43744;SDS011;29359;53.048;8.732;2023-04-24T06:53:14;6.53;;;5.95;;
43744;SDS011;29359;53.048;8.732;2023-04-24T06:55:16;6.43;;;5.82;;
43744;SDS011;29359;53.048;8.732;2023-04-24T06:57:18;6.32;;;5.78;;
43744;SDS011;29359;53.048;8.732;2023-04-24T06:59:21;7.00;;;6.40;;
43744;SDS011;29359;53.048;8.732;2023-04-24T07:01:22;7.45;;;6.47;;
43744;SDS011;29359;53.048;8.732;2023-04-24T07:03:24;7.20;;;6.57;;
43744;SDS011;29359;53.048;8.732;2023-04-24T07:05:26;7.15;;;6.45;;
43744;SDS011;29359;53.048;8.732;2023-04-24T07:07:27;8.05;;;6.47;;
43744;SDS011;29359;53.048;8.732;2023-04-24T07:09:29;8.10;;;6.70;;
43744;SDS011;29359;53.048;8.732;2023-04-24T07:11:30;8.02;;;6.80;;
43744;SDS011;29359;53.048;8.732;2023-04-24T07:13:32;7.22;;;6.47;;
43744;SDS011;29359;53.048;8.732;2023-04-24T07:15:36;7.13;;;6.07;;
43744;SDS011;29359;53.048;8.732;2023-04-24T07:17:38;8.80;;;6.38;;
43744;SDS011;29359;53.048;8.732;2023-04-24T07:19:39;7.82;;;5.70;;
43744;SDS011;29359;53.048;8.732;2023-04-24T07:21:41;6.20;;;5.60;;
43744;SDS011;29359;53.048;8.732;2023-04-24T07:23:43;6.68;;;6.07;;
43744;SDS011;29359;53.048;8.732;2023-04-24T07:25:44;7.18;;;5.90;;
43744;SDS011;29359;53.048;8.732;2023-04-24T07:27:46;6.63;;;6.03;;
43744;SDS011;29359;53.048;8.732;2023-04-24T07:29:48;9.85;;;6.13;;
43744;SDS011;29359;53.048;8.732;2023-04-24T07:31:49;6.53;;;5.80;;
43744;SDS011;29359;53.048;8.732;2023-04-24T07:33:51;6.30;;;5.65;;
43744;SDS011;29359;53.048;8.732;2023-04-24T07:35:52;7.30;;;5.90;;
43744;SDS011;29359;53.048;8.732;2023-04-24T07:37:54;7.70;;;5.47;;
43744;SDS011;29359;53.048;8.732;2023-04-24T07:39:56;5.78;;;5.28;;
43744;SDS011;29359;53.048;8.732;2023-04-24T07:41:58;8.85;;;5.72;;
43744;SDS011;29359;53.048;8.732;2023-04-24T07:44:00;7.25;;;4.60;;
43744;SDS011;29359;53.048;8.732;2023-04-24T07:46:01;5.90;;;5.13;;
43744;SDS011;29359;53.048;8.732;2023-04-24T07:48:03;5.57;;;5.07;;
43744;SDS011;29359;53.048;8.732;2023-04-24T07:50:05;6.78;;;4.85;;
43744;SDS011;29359;53.048;8.732;2023-04-24T07:52:07;4.85;;;4.45;;
43744;SDS011;29359;53.048;8.732;2023-04-24T07:54:08;5.95;;;5.07;;
43744;SDS011;29359;53.048;8.732;2023-04-24T07:56:10;5.72;;;5.18;;
43744;SDS011;29359;53.048;8.732;2023-04-24T07:58:12;5.75;;;5.15;;
43744;SDS011;29359;53.048;8.732;2023-04-24T08:00:13;6.30;;;5.50;;
43744;SDS011;29359;53.048;8.732;2023-04-24T08:02:15;7.15;;;5.35;;
43744;SDS011;29359;53.048;8.732;2023-04-24T08:04:17;6.00;;;5.10;;
43744;SDS011;29359;53.048;8.732;2023-04-24T08:06:19;7.30;;;5.13;;
43744;SDS011;29359;53.048;8.732;2023-04-24T08:08:21;5.90;;;5.40;;
43744;SDS011;29359;53.048;8.732;2023-04-24T08:10:24;5.30;;;4.80;;
43744;SDS011;29359;53.048;8.732;2023-04-24T08:12:28;6.80;;;5.20;;
43744;SDS011;29359;53.048;8.732;2023-04-24T08:14:30;5.63;;;5.13;;
43744;SDS011;29359;53.048;8.732;2023-04-24T08:16:32;5.72;;;5.20;;
43744;SDS011;29359;53.048;8.732;2023-04-24T08:18:34;7.38;;;5.57;;
43744;SDS011;29359;53.048;8.732;2023-04-24T08:20:37;6.50;;;5.30;;
43744;SDS011;29359;53.048;8.732;2023-04-24T08:22:41;6.47;;;5.55;;
43744;SDS011;29359;53.048;8.732;2023-04-24T08:24:44;5.85;;;5.35;;
43744;SDS011;29359;53.048;8.732;2023-04-24T08:26:45;7.10;;;5.15;;
43744;SDS011;29359;53.048;8.732;2023-04-24T08:28:47;6.45;;;5.47;;
43744;SDS011;29359;53.048;8.732;2023-04-24T08:30:48;8.98;;;5.70;;
43744;SDS011;29359;53.048;8.732;2023-04-24T08:32:55;6.38;;;5.50;;
43744;SDS011;29359;53.048;8.732;2023-04-24T08:34:58;6.00;;;5.50;;
43744;SDS011;29359;53.048;8.732;2023-04-24T08:37:00;6.82;;;5.85;;
43744;SDS011;29359;53.048;8.732;2023-04-24T08:39:02;6.88;;;5.47;;
43744;SDS011;29359;53.048;8.732;2023-04-24T08:41:03;5.60;;;5.20;;
43744;SDS011;29359;53.048;8.732;2023-04-24T08:43:06;6.50;;;5.38;;
43744;SDS011;29359;53.048;8.732;2023-04-24T08:45:08;6.78;;;6.07;;
43744;SDS011;29359;53.048;8.732;2023-04-24T08:47:11;10.05;;;6.00;;
43744;SDS011;29359;53.048;8.732;2023-04-24T08:49:16;7.53;;;6.03;;
43744;SDS011;29359;53.048;8.732;2023-04-24T08:51:19;10.23;;;5.75;;
43744;SDS011;29359;53.048;8.732;2023-04-24T08:53:21;6.60;;;5.95;;
43744;SDS011;29359;53.048;8.732;2023-04-24T08:55:24;7.43;;;5.68;;
43744;SDS011;29359;53.048;8.732;2023-04-24T08:57:26;6.65;;;5.50;;
43744;SDS011;29359;53.048;8.732;2023-04-24T08:59:28;9.02;;;6.13;;
43744;SDS011;29359;53.048;8.732;2023-04-24T09:01:31;6.78;;;6.18;;
43744;SDS011;29359;53.048;8.732;2023-04-24T09:03:35;12.00;;;7.68;;
43744;SDS011;29359;53.048;8.732;2023-04-24T09:05:37;9.85;;;7.13;;
43744;SDS011;29359;53.048;8.732;2023-04-24T09:07:39;8.15;;;6.18;;
43744;SDS011;29359;53.048;8.732;2023-04-24T09:09:44;7.38;;;6.57;;
43744;SDS011;29359;53.048;8.732;2023-04-24T09:11:46;7.60;;;6.93;;
43744;SDS011;29359;53.048;8.732;2023-04-24T09:13:50;11.73;;;7.72;;
43744;SDS011;29359;53.048;8.732;2023-04-24T09:15:52;10.07;;;7.45;;
43744;SDS011;29359;53.048;8.732;2023-04-24T09:17:53;9.88;;;7.88;;
43744;SDS011;29359;53.048;8.732;2023-04-24T09:19:55;16.17;;;8.98;;
43744;SDS011;29359;53.048;8.732;2023-04-24T09:21:57;10.90;;;9.13;;
43744;SDS011;29359;53.048;8.732;2023-04-24T09:23:59;9.75;;;8.77;;
43744;SDS011;29359;53.048;8.732;2023-04-24T09:26:05;11.32;;;9.82;;
43744;SDS011;29359;53.048;8.732;2023-04-24T09:28:07;10.20;;;8.00;;
43744;SDS011;29359;53.048;8.732;2023-04-24T09:30:08;10.35;;;8.70;;
43744;SDS011;29359;53.048;8.732;2023-04-24T09:32:19;9.23;;;8.32;;
43744;SDS011;29359;53.048;8.732;2023-04-24T09:34:25;10.48;;;8.70;;
43744;SDS011;29359;53.048;8.732;2023-04-24T09:36:31;14.57;;;9.18;;
43744;SDS011;29359;53.048;8.732;2023-04-24T09:38:40;12.38;;;9.68;;
43744;SDS011;29359;53.048;8.732;2023-04-24T09:40:41;13.35;;;9.48;;
43744;SDS011;29359;53.048;8.732;2023-04-24T09:42:43;8.93;;;7.93;;
43744;SDS011;29359;53.048;8.732;2023-04-24T09:44:47;8.80;;;7.82;;
43744;SDS011;29359;53.048;8.732;2023-04-24T09:47:04;7.95;;;7.25;;
43744;SDS011;29359;53.048;8.732;2023-04-24T09:49:13;9.00;;;7.65;;
43744;SDS011;29359;53.048;8.732;2023-04-24T09:51:16;8.70;;;7.97;;
43744;SDS011;29359;53.048;8.732;2023-04-24T09:53:18;10.20;;;7.60;;
43744;SDS011;29359;53.048;8.732;2023-04-24T09:55:25;10.18;;;7.97;;
43744;SDS011;29359;53.048;8.732;2023-04-24T09:57:27;9.85;;;7.70;;
43744;SDS011;29359;53.048;8.732;2023-04-24T09:59:29;10.82;;;8.02;;
43744;SDS011;29359;53.048;8.732;2023-04-24T10:01:31;10.13;;;8.50;;
43744;SDS011;29359;53.048;8.732;2023-04-24T10:03:34;9.75;;;7.93;;
43744;SDS011;29359;53.048;8.732;2023-04-24T10:05:36;9.75;;;7.72;;
43744;SDS011;29359;53.048;8.732;2023-04-24T10:07:39;9.93;;;7.72;;
43744;SDS011;29359;53.048;8.732;2023-04-24T10:09:41;8.27;;;7.43;;
43744;SDS011;29359;53.048;8.732;2023-04-24T10:11:44;8.23;;;7.38;;
43744;SDS011;29359;53.048;8.732;2023-04-24T10:13:47;9.43;;;7.20;;
43744;SDS011;29359;53.048;8.732;2023-04-24T10:15:50;7.88;;;7.15;;
43744;SDS011;29359;53.048;8.732;2023-04-24T10:17:52;9.45;;;6.80;;
43744;SDS011;29359;53.048;8.732;2023-04-24T10:19:54;7.70;;;6.90;;
43744;SDS011;29359;53.048;8.732;2023-04-24T10:21:56;9.00;;;6.85;;
43744;SDS011;29359;53.048;8.732;2023-04-24T10:23:59;7.03;;;6.32;;
43744;SDS011;29359;53.048;8.732;2023-04-24T10:26:04;6.88;;;6.28;;
43744;SDS011;29359;53.048;8.732;2023-04-24T10:28:06;6.50;;;6.00;;
43744;SDS011;29359;53.048;8.732;2023-04-24T10:30:11;7.07;;;6.38;;
43744;SDS011;29359;53.048;8.732;2023-04-24T10:32:14;6.65;;;6.07;;
43744;SDS011;29359;53.048;8.732;2023-04-24T10:34:16;7.13;;;6.43;;
43744;SDS011;29359;53.048;8.732;2023-04-24T10:36:22;7.38;;;6.65;;
43744;SDS011;29359;53.048;8.732;2023-04-24T10:38:27;6.75;;;6.15;;
43744;SDS011;29359;53.048;8.732;2023-04-24T10:40:34;6.50;;;6.00;;
43744;SDS011;29359;53.048;8.732;2023-04-24T10:42:40;6.53;;;5.95;;
43744;SDS011;29359;53.048;8.732;2023-04-24T10:44:46;6.95;;;6.40;;
43744;SDS011;29359;53.048;8.732;2023-04-24T10:48:59;6.32;;;5.90;;
43744;SDS011;29359;53.048;8.732;2023-04-24T10:51:05;6.28;;;5.78;;
43744;SDS011;29359;53.048;8.732;2023-04-24T10:53:17;7.30;;;5.60;;
43744;SDS011;29359;53.048;8.732;2023-04-24T10:55:41;5.35;;;4.93;;
43744;SDS011;29359;53.048;8.732;2023-04-24T10:58:03;5.00;;;4.60;;
43744;SDS011;29359;53.048;8.732;2023-04-24T11:00:19;6.28;;;5.78;;
43744;SDS011;29359;53.048;8.732;2023-04-24T11:02:35;5.25;;;4.85;;
43744;SDS011;29359;53.048;8.732;2023-04-24T11:04:37;5.13;;;4.72;;
43744;SDS011;29359;53.048;8.732;2023-04-24T11:06:39;5.15;;;4.75;;
43744;SDS011;29359;53.048;8.732;2023-04-24T11:08:44;7.43;;;4.90;;
43744;SDS011;29359;53.048;8.732;2023-04-24T11:10:50;5.53;;;5.13;;
43744;SDS011;29359;53.048;8.732;2023-04-24T11:12:57;6.78;;;4.55;;
43744;SDS011;29359;53.048;8.732;2023-04-24T11:15:02;5.07;;;4.78;;
43744;SDS011;29359;53.048;8.732;2023-04-24T11:17:04;5.40;;;4.90;;
43744;SDS011;29359;53.048;8.732;2023-04-24T11:21:19;4.25;;;3.95;;
43744;SDS011;29359;53.048;8.732;2023-04-24T11:23:21;4.90;;;4.40;;
43744;SDS011;29359;53.048;8.732;2023-04-24T11:25:22;4.65;;;4.10;;
43744;SDS011;29359;53.048;8.732;2023-04-24T11:27:24;4.57;;;4.28;;
43744;SDS011;29359;53.048;8.732;2023-04-24T11:29:44;4.10;;;3.80;;
43744;SDS011;29359;53.048;8.732;2023-04-24T11:31:48;4.35;;;3.97;;
43744;SDS011;29359;53.048;8.732;2023-04-24T11:33:52;4.47;;;4.18;;
43744;SDS011;29359;53.048;8.732;2023-04-24T11:35:54;3.97;;;3.67;;
43744;SDS011;29359;53.048;8.732;2023-04-24T11:37:56;4.40;;;4.00;;
43744;SDS011;29359;53.048;8.732;2023-04-24T11:40:01;4.10;;;3.70;;
43744;SDS011;29359;53.048;8.732;2023-04-24T11:42:03;5.60;;;4.35;;
43744;SDS011;29359;53.048;8.732;2023-04-24T11:44:08;5.15;;;4.00;;
43744;SDS011;29359;53.048;8.732;2023-04-24T11:46:10;3.63;;;3.40;;
43744;SDS011;29359;53.048;8.732;2023-04-24T11:48:12;3.70;;;3.40;;
43744;SDS011;29359;53.048;8.732;2023-04-24T11:50:15;4.22;;;3.92;;
43744;SDS011;29359;53.048;8.732;2023-04-24T11:52:18;5.00;;;4.00;;
43744;SDS011;29359;53.048;8.732;2023-04-24T11:54:20;4.82;;;4.53;;
43744;SDS011;29359;53.048;8.732;2023-04-24T11:56:22;4.60;;;4.30;;
43744;SDS011;29359;53.048;8.732;2023-04-24T11:58:25;4.72;;;4.32;;
43744;SDS011;29359;53.048;8.732;2023-04-24T12:00:29;5.55;;;5.00;;
43744;SDS011;29359;53.048;8.732;2023-04-24T12:02:32;4.90;;;4.60;;
43744;SDS011;29359;53.048;8.732;2023-04-24T12:04:40;5.60;;;5.20;;
43744;SDS011;29359;53.048;8.732;2023-04-24T12:09:03;5.07;;;4.75;;
43744;SDS011;29359;53.048;8.732;2023-04-24T12:11:18;5.22;;;4.82;;
43744;SDS011;29359;53.048;8.732;2023-04-24T12:13:20;5.03;;;4.72;;
43744;SDS011;29359;53.048;8.732;2023-04-24T12:15:22;5.65;;;5.35;;
43744;SDS011;29359;53.048;8.732;2023-04-24T12:17:25;6.15;;;5.65;;
43744;SDS011;29359;53.048;8.732;2023-04-24T12:19:32;6.97;;;6.47;;
43744;SDS011;29359;53.048;8.732;2023-04-24T12:21:33;5.75;;;5.35;;
43744;SDS011;29359;53.048;8.732;2023-04-24T12:23:35;5.63;;;5.22;;
43744;SDS011;29359;53.048;8.732;2023-04-24T12:25:38;7.50;;;5.90;;